createdAt,value
2022-12-12T00:00:58.659Z,-5.10
2022-12-12T00:03:30.898Z,-5.30
2022-12-12T00:05:58.962Z,-5.20
2022-12-12T00:08:26.959Z,-5.30
2022-12-12T00:10:54.933Z,-5.30
2022-12-12T00:13:22.852Z,-5.30
2022-12-12T00:15:50.835Z,-5.20
2022-12-12T00:18:20.151Z,-5.20
2022-12-12T00:20:52.373Z,-5.10
2022-12-12T00:23:20.289Z,-5.10
2022-12-12T00:25:56.158Z,-5.10
2022-12-12T00:28:24.799Z,-4.90
2022-12-12T00:30:52.865Z,-4.90
2022-12-12T00:33:22.528Z,-4.90
2022-12-12T00:35:51.987Z,-4.90
2022-12-12T00:38:20.688Z,-4.90
2022-12-12T00:40:48.998Z,-5.10
2022-12-12T00:43:17.492Z,-5.10
2022-12-12T00:45:45.625Z,-5.10
2022-12-12T00:48:13.554Z,-5.10
2022-12-12T00:50:43.402Z,-5.00
2022-12-12T00:53:11.793Z,-4.90
2022-12-12T00:55:40.075Z,-5.10
2022-12-12T00:58:07.973Z,-4.90
2022-12-12T01:00:36.446Z,-4.90
2022-12-12T01:03:04.516Z,-4.80
2022-12-12T01:05:32.478Z,-5.00
2022-12-12T01:08:01.810Z,-5.00
2022-12-12T01:10:29.926Z,-4.90
2022-12-12T01:12:57.869Z,-5.00
2022-12-12T01:15:26.329Z,-4.90
2022-12-12T01:17:54.613Z,-4.90
2022-12-12T01:20:25.421Z,-4.70
2022-12-12T01:22:53.428Z,-4.80
2022-12-12T01:25:23.162Z,-4.80
2022-12-12T01:27:51.177Z,-4.80
2022-12-12T01:30:22.302Z,-4.90
2022-12-12T01:32:50.445Z,-4.90
2022-12-12T01:35:19.639Z,-5.10
2022-12-12T01:37:48.276Z,-5.20
2022-12-12T01:40:22.391Z,-5.20
2022-12-12T01:42:52.342Z,-5.40
2022-12-12T01:45:57.992Z,-5.40
2022-12-12T01:48:29.393Z,-5.40
2022-12-12T01:50:58.147Z,-5.50
2022-12-12T01:53:29.532Z,-5.30
2022-12-12T01:55:58.420Z,-5.30
2022-12-12T01:58:28.260Z,-5.20
2022-12-12T02:00:56.307Z,-5.20
2022-12-12T02:03:24.293Z,-5.60
2022-12-12T02:05:54.262Z,-5.30
2022-12-12T02:08:24.357Z,-5.40
2022-12-12T02:10:52.756Z,-5.30
2022-12-12T02:13:23.829Z,-5.20
2022-12-12T02:16:01.134Z,-5.10
2022-12-12T02:18:35.786Z,-5.00
2022-12-12T02:21:16.556Z,-4.90
2022-12-12T02:24:27.757Z,-4.90
2022-12-12T02:27:34.218Z,-4.90
2022-12-12T02:30:20.334Z,-5.20
2022-12-12T02:33:08.873Z,-5.20
2022-12-12T02:35:47.361Z,-5.20
2022-12-12T02:38:23.106Z,-5.30
2022-12-12T02:41:05.009Z,-5.50
2022-12-12T02:43:40.178Z,-5.60
2022-12-12T02:46:14.396Z,-5.70
2022-12-12T02:48:50.337Z,-5.80
2022-12-12T02:51:19.494Z,-5.70
2022-12-12T02:53:47.525Z,-5.70
2022-12-12T02:56:52.338Z,-5.60
2022-12-12T02:59:25.530Z,-5.50
2022-12-12T03:02:20.968Z,-5.70
2022-12-12T03:05:22.858Z,-5.70
2022-12-12T03:08:02.553Z,-5.70
2022-12-12T03:10:42.077Z,-5.60
2022-12-12T03:13:15.189Z,-5.40
2022-12-12T03:15:53.416Z,-5.60
2022-12-12T03:18:26.380Z,-5.70
2022-12-12T03:21:02.711Z,-5.90
2022-12-12T03:23:38.292Z,-5.90
2022-12-12T03:26:11.934Z,-6.00
2022-12-12T03:28:44.529Z,-6.20
2022-12-12T03:31:14.067Z,-6.30
2022-12-12T03:33:47.583Z,-6.30
2022-12-12T03:36:22.158Z,-6.40
2022-12-12T03:38:57.048Z,-6.50
2022-12-12T03:41:30.154Z,-6.70
2022-12-12T03:44:03.881Z,-6.70
2022-12-12T03:46:38.068Z,-6.60
2022-12-12T03:49:11.576Z,-6.70
2022-12-12T03:51:44.942Z,-6.80
2022-12-12T03:54:21.466Z,-6.60
2022-12-12T03:56:56.358Z,-6.40
2022-12-12T03:59:30.102Z,-6.60
2022-12-12T04:02:03.042Z,-6.60
2022-12-12T04:04:37.234Z,-6.50
2022-12-12T04:07:13.661Z,-6.30
2022-12-12T04:09:59.796Z,-6.20
2022-12-12T04:12:53.632Z,-6.30
2022-12-12T04:15:53.768Z,-6.20
2022-12-12T04:18:29.844Z,-6.30
2022-12-12T04:21:25.613Z,-6.10
2022-12-12T04:24:03.893Z,-6.30
2022-12-12T04:26:43.007Z,-6.10
2022-12-12T04:29:20.933Z,-6.10
2022-12-12T04:31:52.774Z,-6.00
2022-12-12T04:34:26.926Z,-6.20
2022-12-12T04:36:55.598Z,-6.40
2022-12-12T04:39:26.532Z,-6.20
2022-12-12T04:41:55.930Z,-6.10
2022-12-12T04:44:25.758Z,-6.00
2022-12-12T04:46:56.046Z,-6.20
2022-12-12T04:49:28.362Z,-6.30
2022-12-12T04:52:00.348Z,-6.00
2022-12-12T04:54:35.397Z,-5.90
2022-12-12T04:57:07.020Z,-6.20
2022-12-12T04:59:35.222Z,-6.00
2022-12-12T05:02:09.981Z,-6.00
2022-12-12T05:04:45.698Z,-6.00
2022-12-12T05:07:18.202Z,-5.90
2022-12-12T05:09:48.554Z,-6.10
2022-12-12T05:12:16.774Z,-6.30
2022-12-12T05:14:44.837Z,-6.50
2022-12-12T05:17:17.998Z,-6.70
2022-12-12T05:19:46.057Z,-6.60
2022-12-12T05:22:13.980Z,-6.80
2022-12-12T05:24:41.984Z,-6.70
2022-12-12T05:27:12.410Z,-6.50
2022-12-12T05:29:40.328Z,-6.40
2022-12-12T05:32:08.342Z,-6.50
2022-12-12T05:34:36.315Z,-6.50
2022-12-12T05:37:04.266Z,-6.70
2022-12-12T05:39:32.274Z,-6.80
2022-12-12T05:42:00.166Z,-6.70
2022-12-12T05:44:29.646Z,-6.60
2022-12-12T05:46:57.583Z,-6.40
2022-12-12T05:49:25.742Z,-6.50
2022-12-12T05:51:53.697Z,-6.30
2022-12-12T05:54:21.644Z,-6.60
2022-12-12T05:56:49.539Z,-6.60
2022-12-12T05:59:17.417Z,-6.50
2022-12-12T06:01:46.728Z,-6.40
2022-12-12T06:04:14.681Z,-6.60
2022-12-12T06:06:42.650Z,-6.60
2022-12-12T06:09:10.542Z,-6.60
2022-12-12T06:11:38.453Z,-6.80
2022-12-12T06:14:06.442Z,-6.80
2022-12-12T06:16:35.665Z,-6.80
2022-12-12T06:19:05.662Z,-6.70
2022-12-12T06:21:33.633Z,-6.70
2022-12-12T06:24:01.615Z,-6.90
2022-12-12T06:26:30.206Z,-7.00
2022-12-12T06:28:58.134Z,-7.00
2022-12-12T06:31:26.101Z,-7.10
2022-12-12T06:33:54.041Z,-6.90
2022-12-12T06:36:24.941Z,-6.90
2022-12-12T06:38:54.283Z,-6.90
2022-12-12T06:41:23.179Z,-7.10
2022-12-12T06:43:51.422Z,-7.00
2022-12-12T06:46:23.146Z,-7.00
2022-12-12T06:48:52.433Z,-6.90
2022-12-12T06:51:23.294Z,-6.90
2022-12-12T06:53:53.048Z,-6.90
2022-12-12T06:56:23.318Z,-6.90
2022-12-12T06:58:51.995Z,-6.90
2022-12-12T07:01:22.482Z,-6.70
2022-12-12T07:03:51.679Z,-6.80
2022-12-12T07:06:21.611Z,-6.80
2022-12-12T07:08:50.029Z,-6.70
2022-12-12T07:11:21.313Z,-6.60
2022-12-12T07:13:49.996Z,-6.80
2022-12-12T07:16:18.837Z,-6.60
2022-12-12T07:18:47.095Z,-6.60
2022-12-12T07:21:17.354Z,-6.70
2022-12-12T07:23:45.797Z,-7.00
2022-12-12T07:26:16.146Z,-7.10
2022-12-12T07:28:45.785Z,-7.00
2022-12-12T07:31:16.258Z,-7.20
2022-12-12T07:33:44.968Z,-7.10
2022-12-12T07:36:14.234Z,-6.90
2022-12-12T07:38:42.457Z,-6.80
2022-12-12T07:41:12.445Z,-6.70
2022-12-12T07:43:44.288Z,-6.90
2022-12-12T07:46:16.394Z,-7.00
2022-12-12T07:48:44.615Z,-7.00
2022-12-12T07:51:12.902Z,-6.70
2022-12-12T07:53:40.829Z,-7.10
2022-12-12T07:56:10.268Z,-6.70
2022-12-12T07:58:38.447Z,-6.60
2022-12-12T08:01:19.537Z,-6.60
2022-12-12T08:03:49.349Z,-6.80
2022-12-12T08:06:18.482Z,-6.80
2022-12-12T08:08:47.766Z,-6.70
2022-12-12T08:11:17.408Z,-6.70
2022-12-12T08:13:45.853Z,-6.70
2022-12-12T08:16:17.939Z,-6.60
2022-12-12T08:18:45.968Z,-6.60
2022-12-12T08:21:18.831Z,-6.50
2022-12-12T08:23:52.650Z,-6.50
2022-12-12T08:26:20.725Z,-6.50
2022-12-12T08:28:49.231Z,-6.40
2022-12-12T08:31:19.450Z,-6.40
2022-12-12T08:33:50.445Z,-6.50
2022-12-12T08:36:19.841Z,-6.50
2022-12-12T08:38:48.119Z,-6.30
2022-12-12T08:41:16.165Z,-6.00
2022-12-12T08:43:44.996Z,-6.20
2022-12-12T08:46:17.712Z,-6.10
2022-12-12T08:48:48.805Z,-6.40
2022-12-12T08:51:17.529Z,-6.40
2022-12-12T08:53:46.276Z,-6.40
2022-12-12T08:56:14.493Z,-6.40
2022-12-12T08:58:42.561Z,-6.20
2022-12-12T09:01:13.830Z,-6.30
2022-12-12T09:03:42.097Z,-6.00
2022-12-12T09:06:12.204Z,-5.90
2022-12-12T09:08:40.483Z,-6.00
2022-12-12T09:11:08.989Z,-5.70
2022-12-12T09:13:37.868Z,-5.50
2022-12-12T09:16:06.625Z,-5.40
2022-12-12T09:18:34.665Z,-5.50
2022-12-12T09:21:02.895Z,-5.50
2022-12-12T09:23:32.857Z,-5.40
2022-12-12T09:26:06.104Z,-5.60
2022-12-12T09:28:34.630Z,-5.80
2022-12-12T09:31:05.620Z,-5.60
2022-12-12T09:33:33.971Z,-5.60
2022-12-12T09:36:03.679Z,-5.60
2022-12-12T09:38:33.802Z,-5.20
2022-12-12T09:41:05.115Z,-5.20
2022-12-12T09:43:42.855Z,-5.40
2022-12-12T09:46:21.717Z,-5.00
2022-12-12T09:48:49.727Z,-5.00
2022-12-12T09:51:18.095Z,-5.20
2022-12-12T09:53:48.370Z,-5.20
2022-12-12T09:56:22.553Z,-5.00
2022-12-12T09:58:57.126Z,-5.10
2022-12-12T10:01:30.914Z,-5.20
2022-12-12T10:04:11.465Z,-5.20
2022-12-12T10:06:46.465Z,-5.10
2022-12-12T10:09:37.803Z,-5.20
2022-12-12T10:12:08.735Z,-5.20
2022-12-12T10:14:41.831Z,-5.20
2022-12-12T10:17:14.943Z,-5.30
2022-12-12T10:19:50.679Z,-5.30
2022-12-12T10:22:27.054Z,-5.10
2022-12-12T10:25:00.649Z,-4.70
2022-12-12T10:27:28.564Z,-5.00
2022-12-12T10:29:59.971Z,-4.90
2022-12-12T10:32:39.178Z,-4.90
2022-12-12T10:35:24.489Z,-4.80
2022-12-12T10:38:15.103Z,-4.90
2022-12-12T10:40:59.246Z,-4.60
2022-12-12T10:43:35.261Z,-4.70
2022-12-12T10:46:17.634Z,-4.90
2022-12-12T10:48:48.749Z,-5.10
2022-12-12T10:51:19.690Z,-5.20
2022-12-12T10:53:47.941Z,-5.00
2022-12-12T10:56:23.080Z,-4.70
2022-12-12T10:58:55.068Z,-4.70
2022-12-12T11:01:52.466Z,-4.60
2022-12-12T11:04:15.895Z,-4.90
2022-12-12T11:06:49.035Z,-4.90
2022-12-12T11:09:20.717Z,-4.80
2022-12-12T11:12:00.591Z,-4.70
2022-12-12T11:14:33.444Z,-4.90
2022-12-12T11:17:02.031Z,-4.70
2022-12-12T11:19:37.956Z,-4.50
2022-12-12T11:22:06.155Z,-4.50
2022-12-12T11:24:35.899Z,-4.80
2022-12-12T11:27:08.153Z,-4.70
2022-12-12T11:29:43.759Z,-4.80
2022-12-12T11:32:15.037Z,-4.50
2022-12-12T11:34:48.413Z,-4.20
2022-12-12T11:37:18.300Z,-4.50
2022-12-12T11:39:50.569Z,-4.50
2022-12-12T11:42:23.267Z,-4.70
2022-12-12T11:45:00.451Z,-4.80
2022-12-12T11:47:30.411Z,-4.70
2022-12-12T11:49:59.777Z,-4.40
2022-12-12T11:52:31.391Z,-4.40
2022-12-12T11:55:00.777Z,-4.50
2022-12-12T11:57:53.010Z,-4.50
2022-12-12T12:00:23.374Z,-4.70
2022-12-12T12:03:16.026Z,-4.60
2022-12-12T12:05:54.625Z,-4.80
2022-12-12T12:08:40.057Z,-4.70
2022-12-12T12:11:19.799Z,-4.80
2022-12-12T12:14:13.672Z,-4.70
2022-12-12T12:16:51.110Z,-4.30
2022-12-12T12:19:25.630Z,-4.30
2022-12-12T12:22:04.812Z,-4.30
2022-12-12T12:24:57.186Z,-4.20
2022-12-12T12:27:35.069Z,-4.10
2022-12-12T12:30:18.334Z,-4.10
2022-12-12T12:33:06.881Z,-4.20
2022-12-12T12:35:45.559Z,-4.20
2022-12-12T12:38:26.226Z,-4.10
2022-12-12T12:41:12.442Z,-4.10
2022-12-12T12:43:57.092Z,-3.90
2022-12-12T12:46:37.861Z,-4.00
2022-12-12T12:49:13.822Z,-4.20
2022-12-12T12:51:50.327Z,-4.40
2022-12-12T12:54:23.404Z,-4.50
2022-12-12T12:56:56.681Z,-4.40
2022-12-12T12:59:30.885Z,-4.30
2022-12-12T13:02:03.965Z,-4.20
2022-12-12T13:04:37.830Z,-4.10
2022-12-12T13:07:13.013Z,-4.10
2022-12-12T13:09:45.341Z,-3.80
2022-12-12T13:12:19.058Z,-3.90
2022-12-12T13:14:52.226Z,-4.20
2022-12-12T13:17:26.258Z,-4.20
2022-12-12T13:19:57.020Z,-4.10
2022-12-12T13:22:34.422Z,-4.30
2022-12-12T13:25:11.022Z,-4.10
2022-12-12T13:27:45.761Z,-4.10
2022-12-12T13:30:23.328Z,-4.40
2022-12-12T13:33:07.096Z,-4.40
2022-12-12T13:35:40.087Z,-4.30
2022-12-12T13:38:18.858Z,-4.30
2022-12-12T13:40:55.464Z,-4.40
2022-12-12T13:43:31.834Z,-4.20
2022-12-12T13:46:00.015Z,-4.10
2022-12-12T13:48:46.855Z,-3.90
2022-12-12T13:51:39.813Z,-4.30
2022-12-12T13:54:53.392Z,-4.20
2022-12-12T13:57:30.782Z,-4.40
2022-12-12T14:00:20.777Z,-4.60
2022-12-12T14:03:01.675Z,-4.70
2022-12-12T14:05:36.730Z,-4.60
2022-12-12T14:08:21.178Z,-4.60
2022-12-12T14:10:58.512Z,-4.60
2022-12-12T14:13:32.146Z,-4.50
2022-12-12T14:16:06.913Z,-4.40
2022-12-12T14:18:38.982Z,-4.50
2022-12-12T14:21:11.635Z,-4.40
2022-12-12T14:23:42.388Z,-4.50
2022-12-12T14:26:48.153Z,-4.50
2022-12-12T14:29:27.221Z,-4.60
2022-12-12T14:32:04.877Z,-4.40
2022-12-12T14:34:46.134Z,-4.60
2022-12-12T14:37:39.145Z,-4.70
2022-12-12T14:40:21.358Z,-4.90
2022-12-12T14:43:19.173Z,-5.00
2022-12-12T14:45:53.213Z,-4.90
2022-12-12T14:48:23.971Z,-4.70
2022-12-12T14:51:09.114Z,-4.80
2022-12-12T14:53:47.842Z,-4.80
2022-12-12T14:56:18.381Z,-4.60
2022-12-12T14:58:50.518Z,-4.60
2022-12-12T15:01:30.131Z,-4.70
2022-12-12T15:03:59.526Z,-4.60
2022-12-12T15:06:36.341Z,-4.50
2022-12-12T15:09:29.231Z,-4.60
2022-12-12T15:12:06.201Z,-4.30
2022-12-12T15:14:34.100Z,-4.60
2022-12-12T15:17:06.162Z,-4.50
2022-12-12T15:19:43.098Z,-4.60
2022-12-12T15:22:13.314Z,-4.50
2022-12-12T15:24:42.591Z,-4.50
2022-12-12T15:27:19.982Z,-4.60
2022-12-12T15:29:48.003Z,-4.50
2022-12-12T15:32:19.782Z,-4.50
2022-12-12T15:34:49.422Z,-4.40
2022-12-12T15:37:26.371Z,-4.40
2022-12-12T15:40:17.495Z,-4.50
2022-12-12T15:42:48.552Z,-4.60
2022-12-12T15:45:21.582Z,-4.80
2022-12-12T15:47:51.628Z,-4.80
2022-12-12T15:50:22.333Z,-4.70
2022-12-12T15:53:08.265Z,-4.70
2022-12-12T15:55:37.663Z,-4.70
2022-12-12T15:58:05.825Z,-4.70
2022-12-12T16:00:37.652Z,-4.80
2022-12-12T16:03:20.686Z,-4.70
2022-12-12T16:06:04.038Z,-4.80
2022-12-12T16:08:38.584Z,-4.80
2022-12-12T16:11:39.348Z,-4.80
2022-12-12T16:14:35.355Z,-5.10
2022-12-12T16:17:08.234Z,-4.90
2022-12-12T16:19:46.417Z,-4.90
2022-12-12T16:22:19.131Z,-4.90
2022-12-12T16:24:50.016Z,-5.00
2022-12-12T16:27:19.542Z,-5.00
2022-12-12T16:29:48.083Z,-4.80
2022-12-12T16:32:17.678Z,-4.80
2022-12-12T16:34:46.035Z,-4.90
2022-12-12T16:37:15.900Z,-4.80
2022-12-12T16:39:44.090Z,-4.90
2022-12-12T16:42:14.771Z,-4.80
2022-12-12T16:44:44.661Z,-4.80
2022-12-12T16:47:17.407Z,-4.80
2022-12-12T16:49:45.777Z,-4.80
2022-12-12T16:52:14.160Z,-4.60
2022-12-12T16:54:45.797Z,-4.70
2022-12-12T16:57:17.476Z,-5.00
2022-12-12T16:59:46.936Z,-5.00
2022-12-12T17:02:20.635Z,-5.00
2022-12-12T17:04:48.962Z,-5.00
2022-12-12T17:07:17.215Z,-5.10
2022-12-12T17:09:45.159Z,-5.00
2022-12-12T17:12:13.411Z,-5.00
2022-12-12T17:14:41.429Z,-5.00
2022-12-12T17:17:10.723Z,-4.90
2022-12-12T17:19:38.662Z,-4.80
2022-12-12T17:22:06.678Z,-4.80
2022-12-12T17:24:34.574Z,-4.90
2022-12-12T17:27:02.482Z,-4.80
2022-12-12T17:29:30.425Z,-4.90
2022-12-12T17:31:58.439Z,-4.80
2022-12-12T17:34:27.765Z,-4.80
2022-12-12T17:36:55.658Z,-4.80
2022-12-12T17:39:23.818Z,-4.80
2022-12-12T17:41:51.738Z,-4.80
2022-12-12T17:44:19.625Z,-4.80
2022-12-12T17:46:47.678Z,-4.80
2022-12-12T17:49:15.569Z,-4.70
2022-12-12T17:51:44.855Z,-4.70
2022-12-12T17:54:13.113Z,-4.80
2022-12-12T17:56:41.772Z,-4.90
2022-12-12T17:59:10.282Z,-4.80
2022-12-12T18:01:38.442Z,-4.90
2022-12-12T18:04:06.580Z,-5.10
2022-12-12T18:06:36.357Z,-5.20
2022-12-12T18:09:05.850Z,-5.20
2022-12-12T18:11:35.649Z,-5.00
2022-12-12T18:14:07.610Z,-5.00
2022-12-12T18:16:37.241Z,-5.10
2022-12-12T18:19:05.740Z,-5.20
2022-12-12T18:24:25.602Z,-5.20
2022-12-12T18:26:54.127Z,-5.20
2022-12-12T18:29:23.173Z,-5.50
2022-12-12T18:31:51.599Z,-5.20
2022-12-12T18:34:19.639Z,-5.30
2022-12-12T18:36:47.680Z,-5.30
2022-12-12T18:39:18.750Z,-5.50
2022-12-12T18:41:49.019Z,-5.60
2022-12-12T18:44:17.055Z,-5.60
2022-12-12T18:46:45.310Z,-5.60
2022-12-12T18:49:15.737Z,-5.30
2022-12-12T18:51:44.547Z,-5.40
2022-12-12T18:54:15.233Z,-5.30
2022-12-12T18:56:44.398Z,-5.10
2022-12-12T18:59:14.398Z,-5.00
2022-12-12T19:01:42.909Z,-5.00
2022-12-12T19:04:14.352Z,-4.90
2022-12-12T19:06:45.728Z,-4.80
2022-12-12T19:09:16.642Z,-4.80
2022-12-12T19:11:45.379Z,-4.80
2022-12-12T19:14:16.124Z,-4.70
2022-12-12T19:16:44.268Z,-4.60
2022-12-12T19:19:13.272Z,-4.60
2022-12-12T19:21:42.922Z,-4.50
2022-12-12T19:24:12.327Z,-4.50
2022-12-12T19:26:42.001Z,-4.50
2022-12-12T19:29:13.174Z,-4.50
2022-12-12T19:31:42.482Z,-4.50
2022-12-12T19:34:13.470Z,-4.50
2022-12-12T19:36:45.225Z,-4.50
2022-12-12T19:39:13.597Z,-4.50
2022-12-12T19:41:42.335Z,-4.40
2022-12-12T19:44:12.891Z,-4.40
2022-12-12T19:46:45.465Z,-4.30
2022-12-12T19:49:15.663Z,-4.20
2022-12-12T19:51:45.205Z,-4.50
2022-12-12T19:54:16.703Z,-4.50
2022-12-12T19:56:44.958Z,-4.60
2022-12-12T19:59:14.900Z,-4.70
2022-12-12T20:01:44.599Z,-4.60
2022-12-12T20:04:16.333Z,-4.60
2022-12-12T20:06:46.102Z,-4.40
2022-12-12T20:09:15.258Z,-4.50
2022-12-12T20:11:45.217Z,-4.40
2022-12-12T20:14:14.874Z,-4.30
2022-12-12T20:16:44.783Z,-4.40
2022-12-12T20:19:13.459Z,-4.40
2022-12-12T20:24:32.551Z,-4.30
2022-12-12T20:27:02.911Z,-4.50
2022-12-12T20:29:31.028Z,-4.60
2022-12-12T20:32:01.299Z,-4.50
2022-12-12T20:34:29.872Z,-4.40
2022-12-12T20:36:58.580Z,-4.60
2022-12-12T20:39:26.617Z,-4.60
2022-12-12T20:41:56.545Z,-4.70
2022-12-12T20:44:25.594Z,-4.60
2022-12-12T20:46:54.018Z,-4.60
2022-12-12T20:49:24.708Z,-4.70
2022-12-12T20:51:56.306Z,-4.70
2022-12-12T20:54:25.706Z,-4.70
2022-12-12T20:56:54.439Z,-4.70
2022-12-12T20:59:23.506Z,-4.80
2022-12-12T21:01:51.769Z,-4.80
2022-12-12T21:04:19.873Z,-5.00
2022-12-12T21:06:51.345Z,-5.10
2022-12-12T21:09:25.598Z,-4.90
2022-12-12T21:11:55.761Z,-5.00
2022-12-12T21:14:24.255Z,-4.90
2022-12-12T21:16:52.456Z,-4.80
2022-12-12T21:19:21.947Z,-4.70
2022-12-12T21:21:51.613Z,-4.70
2022-12-12T21:24:20.706Z,-4.80
2022-12-12T21:26:48.987Z,-4.90
2022-12-12T21:29:17.123Z,-4.90
2022-12-12T21:31:50.947Z,-4.90
2022-12-12T21:34:20.097Z,-4.90
2022-12-12T21:36:52.594Z,-4.90
2022-12-12T21:39:21.874Z,-4.90
2022-12-12T21:41:51.207Z,-5.20
2022-12-12T21:44:19.391Z,-5.20
2022-12-12T21:46:47.374Z,-5.10
2022-12-12T21:49:26.526Z,-5.00
2022-12-12T21:51:57.646Z,-4.90
2022-12-12T21:54:26.572Z,-5.20
2022-12-12T21:56:54.493Z,-5.00
2022-12-12T21:59:22.755Z,-5.00
2022-12-12T22:01:52.105Z,-5.00
2022-12-12T22:04:20.021Z,-5.20
2022-12-12T22:06:48.176Z,-5.40
2022-12-12T22:09:17.686Z,-5.30
2022-12-12T22:11:50.524Z,-5.10
2022-12-12T22:14:21.421Z,-5.00
2022-12-12T22:16:49.694Z,-4.80
2022-12-12T22:19:18.480Z,-4.80
2022-12-12T22:21:48.152Z,-4.80
2022-12-12T22:24:18.230Z,-4.80
2022-12-12T22:26:47.911Z,-5.00
2022-12-12T22:29:17.374Z,-5.00
2022-12-12T22:31:46.005Z,-5.00
2022-12-12T22:34:16.398Z,-4.90
2022-12-12T22:36:45.736Z,-5.00
2022-12-12T22:39:15.869Z,-5.00
2022-12-12T22:41:45.291Z,-5.00
2022-12-12T22:44:16.639Z,-4.90
2022-12-12T22:46:45.603Z,-4.70
2022-12-12T22:49:14.764Z,-4.80
2022-12-12T22:51:43.845Z,-4.90
2022-12-12T22:54:12.409Z,-5.00
2022-12-12T22:56:41.296Z,-5.00
2022-12-12T22:59:13.179Z,-4.90
2022-12-12T23:01:41.865Z,-5.00
2022-12-12T23:04:12.058Z,-5.10
2022-12-12T23:06:40.100Z,-4.90
2022-12-12T23:09:14.325Z,-5.00
2022-12-12T23:11:42.433Z,-4.90
2022-12-12T23:14:15.234Z,-4.90
2022-12-12T23:16:44.079Z,-4.80
2022-12-12T23:19:14.469Z,-4.90
2022-12-12T23:21:42.967Z,-4.90
2022-12-12T23:24:10.892Z,-4.90
2022-12-12T23:26:38.993Z,-5.10
2022-12-12T23:29:09.253Z,-4.90
2022-12-12T23:31:39.809Z,-4.80
2022-12-12T23:34:15.355Z,-4.70
2022-12-12T23:36:43.821Z,-4.70
2022-12-12T23:39:12.432Z,-4.70
2022-12-12T23:41:40.673Z,-4.80
2022-12-12T23:44:09.586Z,-4.70
2022-12-12T23:46:38.834Z,-4.80
2022-12-12T23:49:08.615Z,-4.70
2022-12-12T23:51:38.626Z,-4.70
2022-12-12T23:54:08.887Z,-4.90
2022-12-12T23:56:36.841Z,-5.00
2022-12-12T23:59:05.179Z,-4.80
